KFNT/FNT METAR and TAF weather

Enter ICAO airport designator
Station Type Date Time Source
KFNT METAR 2022/06/28 15:53 UTC NOAA

KFNT 281553Z 27009KT 10SM CLR 23/09 A3023 RMK AO2 SLP235 T02280089


Station Type Date Time Source
KFNT Decoded METAR 2022/06/28 15:53 UTC NOAA

FLINT BISHOP INTERNATIONAL AIRPORT, MI, United States (KFNT) 42-58N 83-45W 233M
Jun 28, 2022 - 11:53 AM EDT / 2022.06.28 1553 UTC
Wind: from the W (270 degrees) at 10 MPH (9 KT):0
Visibility: 10 mile(s):0
Sky conditions: clear
Temperature: 73.0 F (22.8 C)
Dew Point: 48.0 F (8.9 C)
Relative Humidity: 41%
Pressure (altimeter): 30.23 in. Hg (1023 hPa)
ob: KFNT 281553Z 27009KT 10SM CLR 23/09 A3023 RMK AO2 SLP235 T02280089
cycle: 16

Station Type Date Time Source
KFNT TAF 2022/06/28 12:22 UTC NOAA

TAF KFNT 281120Z 2812/2912 34005KT P6SM SKC
FM281500 24009KT P6SM SCT250
FM290200 19006KT P6SM SCT070 OVC200
FM290600 22005KT P6SM -SHRA OVC050
TEMPO 2908/2912 3SM -TSRA OVC025CB

Example: see airport list